Time;durP1;ratioP1;P1;durP2;ratioP2;P2;SDS_P1;SDS_P2;PMS_P1;PMS_P2;Temp;Humidity;BMP_temperature;BMP_pressure;BME280_temperature;BME280_humidity;BME280_pressure;Samples;Min_cycle;Max_cycle;Signal;HPM_P1;HPM_P2
2023/10/09 00:01:13;;;;;;;;;;;18.70;69.60;;;;;;5060751;28;20315;-54
2023/10/09 00:03:42;;;;;;;;;;;18.70;69.60;;;;;;5066791;28;19939;-54
2023/10/09 00:06:07;;;;;;;;;;;18.60;69.30;;;;;;5058144;28;19971;-53
2023/10/09 00:08:34;;;;;;;;;;;18.70;69.60;;;;;;5061577;28;19920;-54
2023/10/09 00:11:41;;;;;;;;;;;18.70;69.60;;;;;;5061771;28;19966;-53
2023/10/09 00:13:57;;;;;;;;;;;18.70;69.70;;;;;;5054508;28;19943;-54
2023/10/09 00:16:35;;;;;;;;;;;18.70;69.70;;;;;;5065621;28;19984;-53
2023/10/09 00:19:14;;;;;;;;;;;18.60;69.70;;;;;;5059919;28;19959;-54
2023/10/09 00:21:43;;;;;;;;;;;18.60;69.70;;;;;;5070036;28;20343;-54
2023/10/09 00:24:24;;;;;;;;;;;18.60;69.70;;;;;;5055340;28;20435;-53
2023/10/09 00:26:55;;;;;;;;;;;18.60;69.70;;;;;;5055498;28;19921;-54
2023/10/09 00:29:27;;;;;;;;;;;18.60;69.80;;;;;;5035695;28;20379;-53
2023/10/09 00:32:05;;;;;;;;;;;18.60;70.00;;;;;;5070890;28;19924;-53
2023/10/09 00:34:39;;;;;;;;;;;18.60;70.10;;;;;;5058730;28;19912;-54
2023/10/09 00:37:06;;;;;;;;;;;18.60;70.00;;;;;;5065196;28;19913;-54
2023/10/09 00:39:43;;;;;;;;;;;18.60;70.00;;;;;;5057044;28;19928;-54
2023/10/09 00:42:12;;;;;;;;;;;18.60;70.00;;;;;;5056417;28;20396;-54
2023/10/09 00:44:38;;;;;;;;;;;18.60;70.00;;;;;;5056981;28;19913;-54
2023/10/09 00:47:10;;;;;;;;;;;18.60;70.00;;;;;;5057380;28;19927;-54
2023/10/09 00:49:39;;;;;;;;;;;18.60;70.30;;;;;;5050763;28;20548;-54
2023/10/09 00:52:04;;;;;;;;;;;18.60;71.10;;;;;;5053466;28;19912;-54
2023/10/09 00:54:40;;;;;;;;;;;18.50;70.20;;;;;;5064067;28;19912;-54
2023/10/09 00:57:07;;;;;;;;;;;18.50;70.10;;;;;;5070954;28;20377;-53
2023/10/09 00:59:34;;;;;;;;;;;18.50;70.10;;;;;;5070396;28;20436;-54
2023/10/09 01:02:04;;;;;;;;;;;18.50;70.30;;;;;;5053706;28;20012;-54
2023/10/09 01:04:36;;;;;;;;;;;18.60;70.40;;;;;;5057275;28;19943;-54
2023/10/09 01:07:21;;;;;;;;;;;18.50;70.30;;;;;;5064107;28;19931;-53
2023/10/09 01:09:49;;;;;;;;;;;18.50;70.30;;;;;;5063251;28;19922;-53
2023/10/09 01:12:18;;;;;;;;;;;18.50;70.20;;;;;;5062753;28;19921;-54
2023/10/09 01:14:43;;;;;;;;;;;18.50;70.10;;;;;;5059528;28;19921;-54
2023/10/09 01:17:09;;;;;;;;;;;18.50;70.40;;;;;;5069388;28;19924;-54
2023/10/09 01:19:35;;;;;;;;;;;18.50;70.20;;;;;;5062988;28;19959;-54
2023/10/09 01:22:04;;;;;;;;;;;18.50;70.20;;;;;;5058936;28;19921;-53
2023/10/09 01:24:31;;;;;;;;;;;18.50;70.10;;;;;;5061493;28;19920;-54
2023/10/09 01:26:59;;;;;;;;;;;18.50;69.90;;;;;;5070339;28;20014;-54
2023/10/09 01:29:27;;;;;;;;;;;18.60;69.90;;;;;;5065588;28;20003;-53
2023/10/09 01:31:56;;;;;;;;;;;18.70;69.50;;;;;;5066283;28;19923;-54
2023/10/09 01:34:32;;;;;;;;;;;18.80;69.40;;;;;;5054867;28;19913;-53
2023/10/09 01:36:59;;;;;;;;;;;18.80;69.10;;;;;;5066682;28;19912;-53
2023/10/09 01:39:30;;;;;;;;;;;18.90;69.20;;;;;;5054647;28;19920;-54
2023/10/09 01:41:58;;;;;;;;;;;19.00;68.80;;;;;;5062110;28;19912;-54
2023/10/09 01:44:26;;;;;;;;;;;19.00;68.80;;;;;;5050063;28;20106;-53
2023/10/09 01:46:54;;;;;;;;;;;19.00;68.70;;;;;;5059498;28;19923;-54
2023/10/09 01:49:29;;;;;;;;;;;19.00;68.60;;;;;;5035560;28;20407;-54
2023/10/09 01:52:09;;;;;;;;;;;19.10;68.50;;;;;;5065949;28;19917;-54
2023/10/09 01:54:37;;;;;;;;;;;19.00;68.50;;;;;;5056840;28;19944;-54
2023/10/09 01:57:05;;;;;;;;;;;19.00;68.30;;;;;;5064642;28;19919;-54
2023/10/09 01:59:31;;;;;;;;;;;19.00;68.60;;;;;;5056001;28;20340;-54
2023/10/09 02:02:00;;;;;;;;;;;18.90;68.70;;;;;;5057977;28;19948;-53
2023/10/09 02:04:26;;;;;;;;;;;18.90;68.70;;;;;;5062087;28;20002;-54
2023/10/09 02:06:52;;;;;;;;;;;18.90;68.10;;;;;;5042498;28;20396;-53
2023/10/09 02:09:22;;;;;;;;;;;18.80;68.40;;;;;;5062565;28;20391;-54
2023/10/09 02:11:48;;;;;;;;;;;18.80;69.10;;;;;;5070962;28;20027;-54
2023/10/09 02:14:19;;;;;;;;;;;18.80;68.50;;;;;;5055556;28;20012;-53
2023/10/09 02:17:06;;;;;;;;;;;18.80;68.50;;;;;;5068839;28;19935;-53
2023/10/09 02:19:34;;;;;;;;;;;18.70;68.40;;;;;;5055929;28;19954;-53
2023/10/09 02:22:12;;;;;;;;;;;18.70;68.60;;;;;;5063736;28;20327;-54
2023/10/09 02:27:19;;;;;;;;;;;18.70;68.90;;;;;;5049272;28;19923;-53
2023/10/09 02:29:47;;;;;;;;;;;18.60;69.00;;;;;;5065054;28;19913;-54
2023/10/09 02:32:14;;;;;;;;;;;18.60;68.90;;;;;;5067065;28;19984;-54
2023/10/09 02:34:40;;;;;;;;;;;18.60;69.00;;;;;;5052149;28;20369;-53
2023/10/09 02:37:05;;;;;;;;;;;18.60;69.10;;;;;;5054719;28;19920;-54
2023/10/09 02:39:36;;;;;;;;;;;18.60;69.20;;;;;;5054852;28;19921;-53
2023/10/09 02:42:08;;;;;;;;;;;18.50;69.10;;;;;;5048346;28;19982;-53
2023/10/09 02:44:39;;;;;;;;;;;18.60;69.30;;;;;;5054712;28;19921;-54
2023/10/09 02:47:17;;;;;;;;;;;18.50;69.40;;;;;;5055746;28;19927;-54
2023/10/09 02:49:43;;;;;;;;;;;18.50;69.50;;;;;;5062936;28;19912;-54
2023/10/09 02:52:10;;;;;;;;;;;18.50;69.50;;;;;;5058565;28;20514;-54
2023/10/09 02:54:40;;;;;;;;;;;18.50;69.40;;;;;;5065962;28;20288;-54
2023/10/09 02:57:07;;;;;;;;;;;18.50;69.30;;;;;;5058584;28;19961;-54
2023/10/09 02:59:32;;;;;;;;;;;18.50;69.30;;;;;;5049510;28;19913;-53
2023/10/09 03:01:59;;;;;;;;;;;18.50;69.30;;;;;;5050269;28;19912;-53
2023/10/09 03:04:27;;;;;;;;;;;18.50;69.40;;;;;;5055479;28;19979;-54
2023/10/09 03:06:57;;;;;;;;;;;18.40;69.30;;;;;;5053686;28;20019;-54
2023/10/09 03:09:28;;;;;;;;;;;18.50;69.40;;;;;;5057607;28;19981;-54
2023/10/09 03:12:03;;;;;;;;;;;18.50;69.40;;;;;;5054469;28;19921;-53
2023/10/09 03:14:31;;;;;;;;;;;18.50;69.30;;;;;;5051808;28;19916;-53
2023/10/09 03:16:57;;;;;;;;;;;18.50;69.30;;;;;;5054778;28;19913;-53
2023/10/09 03:19:25;;;;;;;;;;;18.50;69.30;;;;;;5054064;28;19917;-54
2023/10/09 03:21:50;;;;;;;;;;;18.50;69.10;;;;;;5056598;28;20383;-54
2023/10/09 03:24:16;;;;;;;;;;;18.50;69.10;;;;;;5053172;28;19920;-54
2023/10/09 03:26:41;;;;;;;;;;;18.50;69.10;;;;;;5068889;28;19916;-54
2023/10/09 03:29:09;;;;;;;;;;;18.50;69.20;;;;;;5044127;28;19919;-54
2023/10/09 03:31:38;;;;;;;;;;;18.50;69.30;;;;;;5069803;28;19912;-54
2023/10/09 03:34:03;;;;;;;;;;;18.50;69.30;;;;;;5060689;28;19943;-54
2023/10/09 03:36:30;;;;;;;;;;;18.50;69.10;;;;;;5056064;28;19932;-54
2023/10/09 03:38:59;;;;;;;;;;;18.50;69.00;;;;;;5056053;28;19924;-53
2023/10/09 03:41:29;;;;;;;;;;;18.50;68.80;;;;;;5055951;28;20542;-54
2023/10/09 03:43:54;;;;;;;;;;;18.50;68.80;;;;;;5054441;28;19984;-54
2023/10/09 03:46:21;;;;;;;;;;;18.50;68.90;;;;;;5044424;28;20011;-53
2023/10/09 03:48:50;;;;;;;;;;;18.50;69.00;;;;;;5067667;28;19924;-54
2023/10/09 03:51:21;;;;;;;;;;;18.50;68.80;;;;;;5056670;28;19970;-54
2023/10/09 03:53:47;;;;;;;;;;;18.50;69.10;;;;;;5054182;28;20020;-53
2023/10/09 03:56:12;;;;;;;;;;;18.50;68.80;;;;;;5067357;28;20408;-54
2023/10/09 03:58:49;;;;;;;;;;;18.50;68.80;;;;;;5061983;28;19916;-54
2023/10/09 04:01:29;;;;;;;;;;;18.40;68.80;;;;;;5063527;28;19996;-54
2023/10/09 04:03:55;;;;;;;;;;;18.40;68.90;;;;;;5056875;28;19958;-53
2023/10/09 04:06:28;;;;;;;;;;;18.40;68.80;;;;;;5058954;28;19924;-54
2023/10/09 04:08:54;;;;;;;;;;;18.40;68.80;;;;;;5072125;28;19916;-54
2023/10/09 04:11:22;;;;;;;;;;;18.40;68.90;;;;;;5057820;28;19963;-53
2023/10/09 04:13:52;;;;;;;;;;;18.40;68.80;;;;;;5057972;28;19924;-53
2023/10/09 04:16:51;;;;;;;;;;;18.40;68.60;;;;;;5061631;28;20007;-54
2023/10/09 04:19:10;;;;;;;;;;;18.40;68.80;;;;;;5044271;28;20388;-54
2023/10/09 04:21:36;;;;;;;;;;;18.40;68.80;;;;;;5066618;28;19999;-54
2023/10/09 04:26:37;;;;;;;;;;;18.40;69.10;;;;;;5079863;28;19997;-55
2023/10/09 04:29:03;;;;;;;;;;;18.40;68.80;;;;;;5065620;28;19927;-54
2023/10/09 04:31:37;;;;;;;;;;;18.40;68.80;;;;;;5048203;28;19917;-53
2023/10/09 04:34:28;;;;;;;;;;;18.40;68.50;;;;;;5065607;28;19939;-53
2023/10/09 04:37:00;;;;;;;;;;;18.40;69.10;;;;;;5061068;28;20017;-53
2023/10/09 04:42:19;;;;;;;;;;;18.30;68.50;;;;;;5055627;28;19963;-53
2023/10/09 04:45:18;;;;;;;;;;;18.30;68.20;;;;;;5056291;28;20007;-53
2023/10/09 04:52:54;;;;;;;;;;;18.30;68.00;;;;;;5060753;28;20420;-54
2023/10/09 04:55:24;;;;;;;;;;;18.30;68.00;;;;;;5061332;28;19913;-54
2023/10/09 04:58:08;;;;;;;;;;;18.30;67.60;;;;;;5049567;28;20007;-54
2023/10/09 05:03:45;;;;;;;;;;;18.30;67.90;;;;;;5059105;28;19917;-54
2023/10/09 05:08:21;;;;;;;;;;;18.40;67.70;;;;;;5054876;28;19912;-54
2023/10/09 05:13:42;;;;;;;;;;;18.40;67.60;;;;;;5070624;28;19969;-54
2023/10/09 05:16:25;;;;;;;;;;;18.40;67.60;;;;;;5063156;28;19935;-54
2023/10/09 05:18:57;;;;;;;;;;;18.40;67.70;;;;;;5071865;28;20007;-54
2023/10/09 05:26:50;;;;;;;;;;;18.40;67.40;;;;;;5061065;28;19936;-54
2023/10/09 05:29:19;;;;;;;;;;;18.40;67.40;;;;;;5060665;28;20194;-53
2023/10/09 05:31:56;;;;;;;;;;;18.40;67.30;;;;;;5061783;28;19912;-53
2023/10/09 05:34:22;;;;;;;;;;;18.30;67.20;;;;;;5070930;28;20372;-54
2023/10/09 05:36:48;;;;;;;;;;;18.40;67.20;;;;;;5059580;28;19920;-54
2023/10/09 05:39:40;;;;;;;;;;;18.30;67.00;;;;;;5061286;28;19925;-54
2023/10/09 05:41:59;;;;;;;;;;;18.40;67.00;;;;;;5058415;28;19959;-54
2023/10/09 05:50:33;;;;;;;;;;;18.30;66.50;;;;;;5064241;28;20388;-54
2023/10/09 06:08:27;;;;;;;;;;;18.40;65.70;;;;;;5070628;28;19919;-53
2023/10/09 06:13:46;;;;;;;;;;;18.40;65.60;;;;;;5060520;28;19971;-54
2023/10/09 06:19:11;;;;;;;;;;;18.50;65.00;;;;;;5059249;28;20276;-54
2023/10/09 06:22:09;;;;;;;;;;;18.60;65.10;;;;;;5058251;28;19999;-54
2023/10/09 06:24:54;;;;;;;;;;;18.60;65.00;;;;;;5055236;28;19920;-54
2023/10/09 06:32:50;;;;;;;;;;;18.60;65.00;;;;;;5058286;28;19943;-53
2023/10/09 06:43:09;;;;;;;;;;;18.60;65.00;;;;;;5065984;28;19936;-53
2023/10/09 06:45:44;;;;;;;;;;;18.50;65.00;;;;;;5057666;28;19917;-54
2023/10/09 06:48:40;;;;;;;;;;;18.60;65.10;;;;;;5057439;28;19917;-53
2023/10/09 06:50:55;;;;;;;;;;;18.50;65.00;;;;;;5056641;28;19920;-53
2023/10/09 06:53:25;;;;;;;;;;;18.40;65.60;;;;;;5054467;28;19912;-54
2023/10/09 06:55:51;;;;;;;;;;;18.30;65.80;;;;;;5061333;28;19917;-53
2023/10/09 06:58:23;;;;;;;;;;;18.30;65.90;;;;;;5052962;28;19959;-54
2023/10/09 07:03:36;;;;;;;;;;;18.60;65.70;;;;;;5054770;28;19950;-53
2023/10/09 07:06:09;;;;;;;;;;;19.00;64.30;;;;;;5053368;28;20392;-54
2023/10/09 07:08:38;;;;;;;;;;;19.70;62.80;;;;;;5057058;28;19931;-53
2023/10/09 07:13:55;;;;;;;;;;;20.90;59.40;;;;;;5042242;28;20460;-54
2023/10/09 07:16:28;;;;;;;;;;;21.30;58.70;;;;;;5063630;28;19913;-54
2023/10/09 07:18:54;;;;;;;;;;;21.60;58.30;;;;;;5066812;28;19916;-54
2023/10/09 07:21:27;;;;;;;;;;;21.60;58.40;;;;;;5056953;28;20035;-55
2023/10/09 07:23:56;;;;;;;;;;;21.50;58.50;;;;;;5070894;28;19916;-54
2023/10/09 07:26:36;;;;;;;;;;;21.50;58.80;;;;;;5066359;28;19928;-54
2023/10/09 07:29:16;;;;;;;;;;;21.40;58.70;;;;;;5065272;28;20406;-55
2023/10/09 07:31:45;;;;;;;;;;;21.40;59.10;;;;;;5055372;28;19916;-54
2023/10/09 07:36:56;;;;;;;;;;;21.30;59.60;;;;;;5057662;28;19923;-55
2023/10/09 07:39:22;;;;;;;;;;;21.20;60.20;;;;;;5057943;28;20035;-55
2023/10/09 07:42:01;;;;;;;;;;;21.00;60.80;;;;;;5063568;28;20385;-53
2023/10/09 07:44:39;;;;;;;;;;;20.90;61.50;;;;;;5065647;28;19917;-54
2023/10/09 07:47:17;;;;;;;;;;;20.80;62.20;;;;;;5067059;28;19940;-54
2023/10/09 07:49:48;;;;;;;;;;;20.70;62.70;;;;;;5069333;28;19948;-54
2023/10/09 07:52:14;;;;;;;;;;;20.70;63.20;;;;;;5073243;28;20357;-54
2023/10/09 07:54:49;;;;;;;;;;;20.50;63.60;;;;;;5041667;28;19923;-54
2023/10/09 07:57:18;;;;;;;;;;;20.50;63.90;;;;;;5062459;28;19912;-53
2023/10/09 08:00:11;;;;;;;;;;;20.40;64.10;;;;;;5054647;28;19920;-54
2023/10/09 08:02:38;;;;;;;;;;;20.30;64.10;;;;;;5064236;28;19913;-53
2023/10/09 08:05:06;;;;;;;;;;;20.30;64.50;;;;;;5059077;28;20248;-57
2023/10/09 08:07:35;;;;;;;;;;;20.20;64.50;;;;;;5058946;28;20408;-54
2023/10/09 08:17:53;;;;;;;;;;;19.90;65.40;;;;;;5064890;28;19928;-54
2023/10/09 08:20:25;;;;;;;;;;;19.90;65.80;;;;;;5057215;28;20391;-55
2023/10/09 08:22:55;;;;;;;;;;;19.90;65.80;;;;;;5063106;28;19995;-55
2023/10/09 08:25:35;;;;;;;;;;;20.00;66.10;;;;;;5061801;28;19921;-55
2023/10/09 08:35:51;;;;;;;;;;;20.20;66.60;;;;;;5063192;28;19921;-54
2023/10/09 08:38:23;;;;;;;;;;;20.20;66.30;;;;;;5057747;28;19936;-53
2023/10/09 08:40:50;;;;;;;;;;;20.20;66.30;;;;;;5060256;28;19925;-55
2023/10/09 08:43:19;;;;;;;;;;;20.20;66.60;;;;;;5054173;28;19960;-53
2023/10/09 08:48:30;;;;;;;;;;;20.20;66.90;;;;;;5027356;28;20522;-54
2023/10/09 08:50:55;;;;;;;;;;;20.20;66.90;;;;;;5032061;28;19913;-55
2023/10/09 08:53:21;;;;;;;;;;;20.10;67.10;;;;;;5031958;28;20835;-54
2023/10/09 08:55:47;;;;;;;;;;;20.10;67.00;;;;;;5029158;28;20004;-54
2023/10/09 08:58:36;;;;;;;;;;;20.00;67.20;;;;;;5032235;28;19917;-55
2023/10/09 09:01:02;;;;;;;;;;;20.00;67.50;;;;;;5028944;28;19924;-53
2023/10/09 09:03:36;;;;;;;;;;;20.00;67.60;;;;;;5014673;28;19927;-54
2023/10/09 09:06:02;;;;;;;;;;;19.90;67.40;;;;;;5032219;28;20373;-54
2023/10/09 09:08:28;;;;;;;;;;;19.90;68.30;;;;;;5028349;28;19917;-54
2023/10/09 09:10:58;;;;;;;;;;;19.90;68.60;;;;;;5028834;28;19952;-53
2023/10/09 09:13:24;;;;;;;;;;;19.90;68.80;;;;;;5031524;28;19971;-55
2023/10/09 09:15:53;;;;;;;;;;;19.90;68.40;;;;;;5031559;28;19913;-55
2023/10/09 09:18:18;;;;;;;;;;;20.00;68.20;;;;;;5026321;28;19917;-55
2023/10/09 09:20:47;;;;;;;;;;;20.00;68.50;;;;;;5030668;28;20329;-55
2023/10/09 09:23:12;;;;;;;;;;;20.10;67.90;;;;;;5024246;28;19948;-54
2023/10/09 09:25:44;;;;;;;;;;;20.10;67.90;;;;;;5032199;28;19963;-54
2023/10/09 09:28:12;;;;;;;;;;;20.10;67.90;;;;;;5025241;28;19974;-54
2023/10/09 09:30:38;;;;;;;;;;;20.10;68.30;;;;;;5010893;28;19913;-54
2023/10/09 09:33:44;;;;;;;;;;;20.10;68.60;;;;;;5027829;28;19924;-54
2023/10/09 09:36:11;;;;;;;;;;;20.10;68.30;;;;;;5027795;28;19913;-54
2023/10/09 09:38:49;;;;;;;;;;;20.10;68.60;;;;;;5027742;28;20606;-53
2023/10/09 09:41:24;;;;;;;;;;;20.00;69.20;;;;;;5031562;28;20262;-54
2023/10/09 09:43:55;;;;;;;;;;;20.00;68.80;;;;;;5019674;28;19917;-55
2023/10/09 09:46:27;;;;;;;;;;;20.00;68.40;;;;;;5031701;28;19921;-55
2023/10/09 09:48:54;;;;;;;;;;;20.00;68.60;;;;;;5026605;28;19917;-55
2023/10/09 09:51:19;;;;;;;;;;;19.90;68.80;;;;;;5028804;28;19945;-54
2023/10/09 09:53:49;;;;;;;;;;;19.90;69.00;;;;;;5029005;28;19995;-56
2023/10/09 09:56:18;;;;;;;;;;;19.90;69.20;;;;;;5009389;28;20003;-55
2023/10/09 09:58:46;;;;;;;;;;;19.90;69.20;;;;;;4992646;28;19971;-52
2023/10/09 10:01:24;;;;;;;;;;;19.90;69.30;;;;;;5024500;28;19920;-55
2023/10/09 10:03:59;;;;;;;;;;;19.80;69.30;;;;;;5030392;28;19947;-55
2023/10/09 10:06:28;;;;;;;;;;;19.90;69.30;;;;;;5028874;28;19932;-53
2023/10/09 10:08:54;;;;;;;;;;;19.90;69.90;;;;;;5030170;28;19917;-55
2023/10/09 10:11:40;;;;;;;;;;;19.90;70.10;;;;;;5028300;28;19913;-55
2023/10/09 10:14:10;;;;;;;;;;;19.90;70.20;;;;;;5025917;28;19917;-55
2023/10/09 10:16:56;;;;;;;;;;;19.90;69.10;;;;;;5028007;28;19913;-55
2023/10/09 10:19:21;;;;;;;;;;;20.00;69.40;;;;;;5028964;28;20409;-54
2023/10/09 10:21:52;;;;;;;;;;;20.20;69.20;;;;;;5029981;28;19920;-54
2023/10/09 10:24:28;;;;;;;;;;;20.30;68.80;;;;;;5034794;28;19920;-55
2023/10/09 10:27:23;;;;;;;;;;;20.30;68.80;;;;;;5024177;28;19917;-55
2023/10/09 10:30:11;;;;;;;;;;;20.40;68.50;;;;;;5037483;28;20300;-55
2023/10/09 10:32:52;;;;;;;;;;;20.40;68.80;;;;;;5027803;28;19917;-56
2023/10/09 10:35:32;;;;;;;;;;;20.40;68.80;;;;;;5026802;28;19917;-53
2023/10/09 10:40:38;;;;;;;;;;;20.30;68.80;;;;;;5038724;28;19960;-53
2023/10/09 10:43:13;;;;;;;;;;;20.20;68.90;;;;;;5022062;28;20361;-55
2023/10/09 10:45:45;;;;;;;;;;;20.20;69.10;;;;;;5009496;28;20051;-59
2023/10/09 10:48:22;;;;;;;;;;;20.20;69.40;;;;;;5027271;28;20396;-55
2023/10/09 10:50:49;;;;;;;;;;;20.10;69.50;;;;;;5036400;28;20044;-55
2023/10/09 10:53:15;;;;;;;;;;;20.10;69.70;;;;;;5024784;28;20365;-53
2023/10/09 10:55:56;;;;;;;;;;;20.00;69.60;;;;;;5029967;28;20011;-54
2023/10/09 10:58:24;;;;;;;;;;;20.10;69.60;;;;;;5027414;28;20019;-54
2023/10/09 11:06:13;;;;;;;;;;;20.00;69.80;;;;;;5025973;28;19974;-52
2023/10/09 11:08:50;;;;;;;;;;;20.00;69.70;;;;;;5027656;28;19918;-54
2023/10/09 11:11:19;;;;;;;;;;;20.00;69.60;;;;;;4996286;28;19921;-56
2023/10/09 11:13:54;;;;;;;;;;;20.00;69.70;;;;;;5030098;28;20019;-55
2023/10/09 11:16:41;;;;;;;;;;;20.00;69.80;;;;;;5019502;28;20006;-55
2023/10/09 11:19:22;;;;;;;;;;;20.00;69.80;;;;;;5027981;28;19913;-55
2023/10/09 11:21:53;;;;;;;;;;;20.00;69.80;;;;;;5031472;28;19921;-55
2023/10/09 11:24:25;;;;;;;;;;;20.10;69.90;;;;;;5008140;28;20364;-53
2023/10/09 11:26:56;;;;;;;;;;;20.00;69.90;;;;;;5007089;28;19921;-54
2023/10/09 11:32:01;;;;;;;;;;;20.00;70.00;;;;;;5037220;28;19979;-54
2023/10/09 11:34:31;;;;;;;;;;;20.00;69.90;;;;;;5027630;28;19913;-55
2023/10/09 11:36:58;;;;;;;;;;;20.00;70.50;;;;;;5028464;28;19917;-55
2023/10/09 11:39:31;;;;;;;;;;;20.00;70.30;;;;;;5025508;28;19979;-55
2023/10/09 11:42:14;;;;;;;;;;;20.10;70.10;;;;;;5028962;28;19933;-54
2023/10/09 11:44:40;;;;;;;;;;;20.10;70.10;;;;;;5010674;28;19952;-55
2023/10/09 11:49:56;;;;;;;;;;;20.10;70.60;;;;;;5014331;28;19921;-55
2023/10/09 11:54:59;;;;;;;;;;;20.20;70.20;;;;;;5034892;28;19924;-55
2023/10/09 11:57:30;;;;;;;;;;;20.20;70.20;;;;;;5031506;28;20293;-56
2023/10/09 11:59:56;;;;;;;;;;;20.20;70.20;;;;;;5034808;28;19921;-55
2023/10/09 12:02:22;;;;;;;;;;;20.30;70.10;;;;;;5029626;28;19913;-55
2023/10/09 12:04:48;;;;;;;;;;;20.30;70.00;;;;;;5012510;28;19925;-55
2023/10/09 12:07:14;;;;;;;;;;;20.30;70.20;;;;;;5031741;28;19951;-55
2023/10/09 12:09:39;;;;;;;;;;;20.30;70.30;;;;;;5030929;28;19913;-55
2023/10/09 12:12:05;;;;;;;;;;;20.20;70.20;;;;;;5027802;28;20012;-53
2023/10/09 12:14:37;;;;;;;;;;;20.20;70.40;;;;;;5023083;28;19913;-55
2023/10/09 12:17:06;;;;;;;;;;;20.20;70.60;;;;;;5038960;28;20356;-56
2023/10/09 12:19:33;;;;;;;;;;;20.10;71.40;;;;;;5029526;28;20274;-54
2023/10/09 12:22:00;;;;;;;;;;;20.10;70.80;;;;;;5032847;28;19913;-54
2023/10/09 12:24:26;;;;;;;;;;;20.10;71.00;;;;;;5017783;28;19971;-55
2023/10/09 12:26:53;;;;;;;;;;;20.00;71.10;;;;;;5034739;28;19917;-55
2023/10/09 12:29:19;;;;;;;;;;;20.00;71.20;;;;;;5028274;28;19921;-54
2023/10/09 12:31:45;;;;;;;;;;;20.00;71.60;;;;;;5035001;28;20301;-56
2023/10/09 12:34:15;;;;;;;;;;;20.00;71.30;;;;;;5030276;28;19913;-55
2023/10/09 12:36:43;;;;;;;;;;;20.00;71.50;;;;;;5036545;28;19913;-55
2023/10/09 12:39:17;;;;;;;;;;;20.00;71.60;;;;;;5028553;28;20295;-55
2023/10/09 12:41:43;;;;;;;;;;;19.90;71.50;;;;;;5038189;28;20274;-56
2023/10/09 12:44:14;;;;;;;;;;;19.90;71.50;;;;;;5031359;28;20008;-55
2023/10/09 12:46:51;;;;;;;;;;;20.00;71.50;;;;;;5025565;28;19921;-55
2023/10/09 12:49:24;;;;;;;;;;;20.00;71.50;;;;;;5027942;28;20446;-56
2023/10/09 12:51:53;;;;;;;;;;;20.00;71.40;;;;;;5028668;28;19947;-54
2023/10/09 12:54:27;;;;;;;;;;;20.10;71.20;;;;;;5031501;28;19957;-55
2023/10/09 12:56:55;;;;;;;;;;;20.10;71.50;;;;;;5026652;28;19913;-55
2023/10/09 12:59:21;;;;;;;;;;;20.10;71.30;;;;;;5030945;28;19928;-53
2023/10/09 13:01:52;;;;;;;;;;;20.10;71.60;;;;;;5032043;28;19917;-55
2023/10/09 13:04:18;;;;;;;;;;;20.10;71.90;;;;;;5039896;28;19909;-55
2023/10/09 13:06:43;;;;;;;;;;;20.10;71.40;;;;;;5030666;28;20404;-55
2023/10/09 13:09:15;;;;;;;;;;;20.10;71.40;;;;;;5032204;28;19963;-55
2023/10/09 13:11:41;;;;;;;;;;;20.10;71.60;;;;;;5030805;28;19917;-55
2023/10/09 13:14:27;;;;;;;;;;;20.10;71.70;;;;;;5036155;28;20419;-54
2023/10/09 13:16:52;;;;;;;;;;;20.10;71.70;;;;;;5029377;28;19939;-55
2023/10/09 13:19:18;;;;;;;;;;;20.10;71.70;;;;;;5032386;28;20000;-55
2023/10/09 13:21:43;;;;;;;;;;;20.10;71.70;;;;;;5031603;28;19925;-55
2023/10/09 13:24:24;;;;;;;;;;;20.10;71.80;;;;;;5031396;28;19909;-55
2023/10/09 13:26:52;;;;;;;;;;;20.10;71.70;;;;;;5024367;28;20023;-54
2023/10/09 13:29:22;;;;;;;;;;;20.10;71.70;;;;;;5005701;28;20297;-55
2023/10/09 13:31:48;;;;;;;;;;;20.10;72.10;;;;;;5031095;28;19920;-54
2023/10/09 13:34:16;;;;;;;;;;;20.10;72.00;;;;;;5028135;28;19913;-56
2023/10/09 13:36:52;;;;;;;;;;;20.10;72.30;;;;;;5025839;28;19996;-54
2023/10/09 13:39:23;;;;;;;;;;;20.10;72.00;;;;;;5035223;28;19913;-55
2023/10/09 13:41:58;;;;;;;;;;;20.20;72.10;;;;;;4998381;28;19917;-55
2023/10/09 13:44:30;;;;;;;;;;;20.20;72.20;;;;;;5023334;28;19920;-54
2023/10/09 13:47:01;;;;;;;;;;;20.10;72.20;;;;;;5028484;28;19925;-56
2023/10/09 13:49:32;;;;;;;;;;;20.20;72.10;;;;;;5027096;28;19948;-55
2023/10/09 13:52:01;;;;;;;;;;;20.20;72.20;;;;;;5031757;28;19913;-55
2023/10/09 13:56:58;;;;;;;;;;;20.20;72.40;;;;;;5038832;28;20023;-56
2023/10/09 13:59:26;;;;;;;;;;;20.20;72.40;;;;;;5030210;28;19951;-56
2023/10/09 14:01:55;;;;;;;;;;;20.20;72.10;;;;;;5028881;28;19952;-55
2023/10/09 14:04:20;;;;;;;;;;;20.20;72.50;;;;;;5008146;28;19948;-55
2023/10/09 14:06:47;;;;;;;;;;;20.10;72.40;;;;;;5031473;28;19964;-53
2023/10/09 14:09:27;;;;;;;;;;;20.10;72.50;;;;;;5010931;28;19928;-55
2023/10/09 14:12:13;;;;;;;;;;;20.10;72.70;;;;;;5036431;28;20381;-55
2023/10/09 14:14:46;;;;;;;;;;;20.10;72.70;;;;;;5022330;28;19917;-55
2023/10/09 14:17:13;;;;;;;;;;;20.10;72.70;;;;;;5037873;28;19913;-54
2023/10/09 14:19:47;;;;;;;;;;;20.10;72.60;;;;;;5024873;28;19920;-56
2023/10/09 14:22:15;;;;;;;;;;;20.10;72.60;;;;;;5034365;28;19932;-55
2023/10/09 14:24:44;;;;;;;;;;;20.10;72.70;;;;;;5025864;28;19966;-55
2023/10/09 14:27:15;;;;;;;;;;;20.10;72.60;;;;;;5028981;28;19966;-54
2023/10/09 14:29:42;;;;;;;;;;;20.10;72.70;;;;;;5011119;28;19920;-55
2023/10/09 14:32:12;;;;;;;;;;;20.20;72.70;;;;;;5031117;28;19959;-54
2023/10/09 14:34:42;;;;;;;;;;;20.20;72.80;;;;;;5029892;28;19913;-55
2023/10/09 14:37:11;;;;;;;;;;;20.20;72.60;;;;;;5025048;28;19917;-55
2023/10/09 14:39:48;;;;;;;;;;;20.20;72.50;;;;;;5031666;28;19916;-55
2023/10/09 14:42:17;;;;;;;;;;;20.30;72.60;;;;;;5016726;28;19917;-54
2023/10/09 14:44:44;;;;;;;;;;;20.30;72.60;;;;;;5028978;28;20391;-55
2023/10/09 14:47:10;;;;;;;;;;;20.30;72.60;;;;;;5024923;28;19920;-55
2023/10/09 14:49:43;;;;;;;;;;;20.30;72.50;;;;;;5031425;28;19910;-55
2023/10/09 14:52:09;;;;;;;;;;;20.30;72.60;;;;;;5020261;22;19949;-54
2023/10/09 14:54:34;;;;;;;;;;;20.30;72.70;;;;;;5001376;28;19940;-55
2023/10/09 14:57:00;;;;;;;;;;;20.40;72.70;;;;;;5008345;28;19921;-55
2023/10/09 14:59:25;;;;;;;;;;;20.60;72.10;;;;;;5005588;28;19913;-55
2023/10/09 15:01:53;;;;;;;;;;;20.80;71.20;;;;;;5008664;28;19914;-55
2023/10/09 15:04:19;;;;;;;;;;;21.10;70.60;;;;;;5003811;28;19972;-54
2023/10/09 15:06:47;;;;;;;;;;;21.40;69.50;;;;;;5003760;28;19921;-54
2023/10/09 15:09:22;;;;;;;;;;;21.70;68.30;;;;;;4997778;28;20286;-54
2023/10/09 15:11:48;;;;;;;;;;;22.10;67.70;;;;;;5009632;28;19913;-56
2023/10/09 15:14:14;;;;;;;;;;;22.30;66.70;;;;;;4999828;28;19921;-54
2023/10/09 15:16:42;;;;;;;;;;;22.40;66.30;;;;;;5005725;28;19991;-55
2023/10/09 15:19:09;;;;;;;;;;;22.60;65.80;;;;;;5004028;28;20275;-55
2023/10/09 15:21:35;;;;;;;;;;;22.70;65.50;;;;;;5008756;28;19949;-55
2023/10/09 15:24:01;;;;;;;;;;;22.80;65.10;;;;;;4996170;28;19967;-54
2023/10/09 15:26:32;;;;;;;;;;;22.90;65.00;;;;;;5003137;28;20348;-54
2023/10/09 15:29:00;;;;;;;;;;;22.80;64.90;;;;;;5002890;28;20012;-56
2023/10/09 15:31:25;;;;;;;;;;;22.70;65.30;;;;;;4998341;28;19936;-56
2023/10/09 15:33:51;;;;;;;;;;;22.70;65.40;;;;;;5003757;28;19921;-55
2023/10/09 15:36:18;;;;;;;;;;;22.70;65.40;;;;;;5008262;28;19941;-54
2023/10/09 15:38:43;;;;;;;;;;;22.90;65.20;;;;;;5005441;28;19913;-55
2023/10/09 15:41:09;;;;;;;;;;;22.90;64.90;;;;;;5005182;28;19925;-55
2023/10/09 15:43:37;;;;;;;;;;;23.00;64.90;;;;;;4999501;28;19936;-55
2023/10/09 15:46:03;;;;;;;;;;;23.00;64.90;;;;;;5001498;28;20087;-55
2023/10/09 15:48:28;;;;;;;;;;;22.90;65.10;;;;;;5004458;28;20410;-56
2023/10/09 15:50:53;;;;;;;;;;;22.80;65.20;;;;;;5010639;28;19940;-56
2023/10/09 15:53:19;;;;;;;;;;;22.80;65.30;;;;;;5005051;28;19962;-55
2023/10/09 15:55:45;;;;;;;;;;;22.70;65.50;;;;;;5004620;28;19960;-54
2023/10/09 15:58:10;;;;;;;;;;;22.70;65.80;;;;;;5005247;28;20389;-55
2023/10/09 16:00:37;;;;;;;;;;;22.70;65.70;;;;;;4999669;28;21303;-55
2023/10/09 16:03:03;;;;;;;;;;;22.70;65.70;;;;;;5007223;28;20001;-55
2023/10/09 16:05:30;;;;;;;;;;;22.70;65.70;;;;;;4995871;28;19940;-54
2023/10/09 16:07:56;;;;;;;;;;;22.70;65.90;;;;;;5006209;28;19971;-56
2023/10/09 16:10:21;;;;;;;;;;;22.70;66.00;;;;;;5004877;28;19945;-54
2023/10/09 16:12:47;;;;;;;;;;;22.80;65.80;;;;;;4997167;28;19920;-55
2023/10/09 16:15:14;;;;;;;;;;;22.80;65.70;;;;;;4997261;28;19913;-55
2023/10/09 16:17:40;;;;;;;;;;;22.70;66.00;;;;;;5003386;28;19921;-55
2023/10/09 16:20:13;;;;;;;;;;;22.60;66.20;;;;;;5005252;28;19919;-55
2023/10/09 16:22:39;;;;;;;;;;;22.70;66.40;;;;;;5022825;28;19996;-58
2023/10/09 16:25:09;;;;;;;;;;;22.70;66.00;;;;;;4999909;28;19918;-55
2023/10/09 16:27:35;;;;;;;;;;;22.80;65.70;;;;;;5018626;23;19934;-54